Time;durP1;ratioP1;P1;durP2;ratioP2;P2;SDS_P1;SDS_P2;PMS_P1;PMS_P2;Temp;Humidity;BMP_temperature;BMP_pressure;BME280_temperature;BME280_humidity;BME280_pressure;Samples;Min_cycle;Max_cycle;Signal;HPM_P1;HPM_P2
2021/09/10 00:00:37;;;;;;;11.80;4.07;;;18.10;76.00;;;;;;5034026;28;20048;-65
2021/09/10 00:03:43;;;;;;;12.63;3.72;;;18.10;76.10;;;;;;5026862;28;20029;-65
2021/09/10 00:06:50;;;;;;;14.65;4.43;;;18.20;75.80;;;;;;5029817;28;20036;-65
2021/09/10 00:09:56;;;;;;;18.13;5.82;;;18.20;75.50;;;;;;5031215;28;20022;-70
2021/09/10 00:13:02;;;;;;;14.30;5.18;;;18.20;75.40;;;;;;5029371;28;20033;-64
2021/09/10 00:15:28;;;;;;;12.35;4.40;;;18.20;75.40;;;;;;5027756;28;20045;-64
2021/09/10 00:17:55;;;;;;;15.13;5.10;;;18.20;75.40;;;;;;5028588;28;20504;-67
2021/09/10 00:20:22;;;;;;;15.90;5.10;;;18.30;75.30;;;;;;5025881;28;20022;-77
2021/09/10 00:22:49;;;;;;;13.05;4.35;;;18.30;75.20;;;;;;5029438;28;20048;-67
2021/09/10 00:25:15;;;;;;;17.73;4.63;;;18.20;75.20;;;;;;5024775;28;20022;-64
2021/09/10 00:27:42;;;;;;;15.20;4.10;;;18.30;75.20;;;;;;5025446;28;20038;-74
2021/09/10 00:30:48;;;;;;;13.00;4.45;;;18.30;75.20;;;;;;5026627;28;20028;-65
2021/09/10 00:33:54;;;;;;;10.43;5.07;;;18.40;75.00;;;;;;5028092;28;20034;-73
2021/09/10 00:37:00;;;;;;;9.93;3.50;;;18.40;74.90;;;;;;5029899;28;20533;-74
2021/09/10 00:39:26;;;;;;;17.20;3.72;;;18.40;74.70;;;;;;5025927;28;20021;-73
2021/09/10 00:41:53;;;;;;;19.25;4.05;;;18.30;74.50;;;;;;5033544;28;20416;-65
2021/09/10 00:44:19;;;;;;;15.52;5.65;;;18.20;74.70;;;;;;5028920;28;20022;-77
2021/09/10 00:46:46;;;;;;;23.45;4.85;;;18.20;74.80;;;;;;5033365;28;20034;-71
2021/09/10 00:49:13;;;;;;;15.50;3.60;;;18.30;74.70;;;;;;5030132;28;20017;-65
2021/09/10 00:51:40;;;;;;;12.35;3.33;;;18.30;74.60;;;;;;5028932;28;20025;-64
2021/09/10 00:54:07;;;;;;;15.02;4.00;;;18.30;74.40;;;;;;5029373;28;20014;-67
2021/09/10 00:56:34;;;;;;;12.18;3.83;;;18.30;74.30;;;;;;5029255;28;20121;-74
2021/09/10 00:59:03;;;;;;;13.60;4.07;;;18.30;74.40;;;;;;5029971;28;20022;-64
2021/09/10 01:01:31;;;;;;;15.38;4.80;;;18.30;74.40;;;;;;5026723;28;20053;-74
2021/09/10 01:03:58;;;;;;;19.73;5.50;;;18.30;74.30;;;;;;5028390;28;20094;-69
2021/09/10 01:06:26;;;;;;;11.32;4.35;;;18.30;74.20;;;;;;5022141;28;20018;-69
2021/09/10 01:08:52;;;;;;;18.08;4.50;;;18.40;74.10;;;;;;5032199;28;20025;-72
2021/09/10 01:11:20;;;;;;;21.30;5.78;;;18.40;74.10;;;;;;5029228;28;20025;-67
2021/09/10 01:13:47;;;;;;;14.80;4.53;;;18.30;73.80;;;;;;5029418;28;20053;-78
2021/09/10 01:16:14;;;;;;;12.45;4.30;;;18.30;74.00;;;;;;5030753;28;20017;-63
2021/09/10 01:18:40;;;;;;;16.30;4.40;;;18.30;74.30;;;;;;5031182;28;20132;-65
2021/09/10 01:21:07;;;;;;;11.07;4.80;;;18.20;74.20;;;;;;5029182;28;20018;-72
2021/09/10 01:23:33;;;;;;;18.20;3.97;;;18.30;74.20;;;;;;5026520;28;20389;-63
2021/09/10 01:26:00;;;;;;;14.25;4.32;;;18.20;73.90;;;;;;5028607;28;20029;-67
2021/09/10 01:28:28;;;;;;;17.83;5.10;;;18.20;74.10;;;;;;5030191;28;20603;-65
2021/09/10 01:30:54;;;;;;;23.77;5.05;;;18.20;73.90;;;;;;5030442;28;20013;-65
2021/09/10 01:33:21;;;;;;;17.60;4.82;;;18.10;74.20;;;;;;5029953;28;20486;-70
2021/09/10 01:35:48;;;;;;;18.63;5.47;;;18.10;74.70;;;;;;5030463;28;20025;-65
2021/09/10 01:38:14;;;;;;;10.05;5.25;;;18.10;74.70;;;;;;5028601;28;20564;-64
2021/09/10 01:40:41;;;;;;;14.88;4.90;;;18.10;74.60;;;;;;5032155;28;20025;-64
2021/09/10 01:43:08;;;;;;;20.77;6.13;;;18.20;74.60;;;;;;5029032;28;20082;-64
2021/09/10 01:45:35;;;;;;;21.30;5.22;;;18.20;74.40;;;;;;5030728;28;20018;-64
2021/09/10 01:48:01;;;;;;;15.65;4.82;;;18.10;74.20;;;;;;5029266;28;20167;-79
2021/09/10 01:50:28;;;;;;;19.13;4.43;;;18.00;74.30;;;;;;5029752;28;20408;-72
2021/09/10 01:52:54;;;;;;;19.70;6.22;;;17.90;74.70;;;;;;5025500;28;20045;-79
2021/09/10 01:55:21;;;;;;;20.38;4.55;;;17.90;75.00;;;;;;5029635;28;20028;-78
2021/09/10 01:57:49;;;;;;;16.17;3.95;;;17.80;75.10;;;;;;5032030;28;20515;-78
2021/09/10 02:00:19;;;;;;;10.77;4.00;;;17.80;75.20;;;;;;5027508;28;20014;-64
2021/09/10 02:02:45;;;;;;;15.88;4.70;;;17.90;75.10;;;;;;5025852;28;20026;-64
2021/09/10 02:05:12;;;;;;;19.88;5.47;;;17.90;74.80;;;;;;5028682;28;20022;-77
2021/09/10 02:07:39;;;;;;;18.67;5.25;;;17.80;74.60;;;;;;5028608;28;20026;-77
2021/09/10 02:10:07;;;;;;;23.35;5.40;;;17.90;74.60;;;;;;5025410;28;20767;-71
2021/09/10 02:12:34;;;;;;;20.50;4.57;;;17.80;74.60;;;;;;5029314;28;20018;-64
2021/09/10 02:15:00;;;;;;;16.33;4.10;;;17.80;74.90;;;;;;5027213;28;20112;-79
2021/09/10 02:17:27;;;;;;;17.70;3.95;;;17.80;74.90;;;;;;5030056;28;20156;-64
2021/09/10 02:19:53;;;;;;;22.02;6.22;;;17.70;75.10;;;;;;5030701;28;20028;-67
2021/09/10 02:22:20;;;;;;;14.38;5.53;;;17.70;75.20;;;;;;5028964;28;20115;-78
2021/09/10 02:24:46;;;;;;;17.17;6.18;;;17.80;75.30;;;;;;5025981;28;20032;-78
2021/09/10 02:27:13;;;;;;;18.02;5.80;;;17.80;75.10;;;;;;5028172;28;20079;-77
2021/09/10 02:29:39;;;;;;;15.93;5.93;;;17.80;74.80;;;;;;5027179;28;20018;-64
2021/09/10 02:32:06;;;;;;;18.67;4.70;;;17.90;74.70;;;;;;5028658;28;20026;-76
2021/09/10 02:34:33;;;;;;;19.38;6.60;;;17.90;74.20;;;;;;5028481;28;20120;-76
2021/09/10 02:36:59;;;;;;;14.88;6.88;;;17.90;74.20;;;;;;5024637;28;20067;-63
2021/09/10 02:39:26;;;;;;;17.77;4.88;;;17.90;74.10;;;;;;5027139;28;20026;-63
2021/09/10 02:41:52;;;;;;;16.10;4.80;;;17.90;74.30;;;;;;5029938;28;20423;-69
2021/09/10 02:44:19;;;;;;;19.23;4.75;;;17.80;74.20;;;;;;5027244;28;20028;-64
2021/09/10 02:46:45;;;;;;;22.55;5.10;;;17.90;74.20;;;;;;5029380;28;20053;-63
2021/09/10 02:49:12;;;;;;;22.10;5.97;;;17.90;74.30;;;;;;5028492;28;20966;-76
2021/09/10 02:51:38;;;;;;;15.00;3.97;;;17.80;74.00;;;;;;5024245;28;20028;-75
2021/09/10 02:54:05;;;;;;;15.52;3.85;;;17.80;74.00;;;;;;5028311;28;20022;-71
2021/09/10 02:56:31;;;;;;;22.45;5.50;;;17.70;73.90;;;;;;5024453;28;20041;-66
2021/09/10 02:59:37;;;;;;;15.10;4.68;;;17.80;74.20;;;;;;5028588;28;20075;-77
2021/09/10 03:02:43;;;;;;;22.88;6.05;;;17.80;74.10;;;;;;5025872;28;20378;-65
2021/09/10 03:05:50;;;;;;;18.33;4.65;;;17.70;74.20;;;;;;5027862;28;20021;-66
2021/09/10 03:08:56;;;;;;;14.55;4.78;;;17.70;74.20;;;;;;5026200;28;20159;-72
2021/09/10 03:12:02;;;;;;;16.88;5.63;;;17.70;74.20;;;;;;5027154;28;20029;-72
2021/09/10 03:15:08;;;;;;;24.77;4.20;;;17.70;74.10;;;;;;5024229;28;20032;-64
2021/09/10 03:18:14;;;;;;;13.23;4.35;;;17.80;73.80;;;;;;5026798;28;20501;-77
2021/09/10 03:21:20;;;;;;;20.77;4.72;;;17.80;73.80;;;;;;5027923;28;20017;-63
2021/09/10 03:24:26;;;;;;;32.58;19.42;;;17.70;73.40;;;;;;5027404;28;20022;-70
2021/09/10 03:27:32;;;;;;;79.15;57.50;;;17.60;74.00;;;;;;5027256;28;20016;-79
2021/09/10 03:30:38;;;;;;;21.65;7.32;;;17.60;74.20;;;;;;5021320;28;20060;-73
2021/09/10 03:33:44;;;;;;;13.13;4.75;;;17.60;73.80;;;;;;5029163;28;20026;-75
2021/09/10 03:36:50;;;;;;;24.83;6.30;;;17.50;73.90;;;;;;5024847;28;20370;-63
2021/09/10 03:39:56;;;;;;;17.80;4.40;;;17.50;74.40;;;;;;5027087;28;20025;-64
2021/09/10 03:43:02;;;;;;;17.60;5.65;;;17.50;74.40;;;;;;5019159;28;20132;-74
2021/09/10 03:46:08;;;;;;;17.38;5.10;;;17.50;74.00;;;;;;5029989;28;20556;-62
2021/09/10 03:48:35;;;;;;;17.40;3.60;;;17.60;73.60;;;;;;5027498;28;20029;-63
2021/09/10 03:51:01;;;;;;;18.77;5.03;;;17.50;73.70;;;;;;5026640;28;20113;-71
2021/09/10 03:53:28;;;;;;;18.40;4.28;;;17.50;73.70;;;;;;5025936;28;20028;-76
2021/09/10 03:55:55;;;;;;;20.13;5.30;;;17.50;74.20;;;;;;5030255;28;20045;-73
2021/09/10 03:58:21;;;;;;;15.02;4.60;;;17.50;73.60;;;;;;5024921;28;20018;-66
2021/09/10 04:00:48;;;;;;;24.55;5.47;;;17.50;73.50;;;;;;5021078;28;20014;-72
2021/09/10 04:03:14;;;;;;;14.15;4.72;;;17.50;73.60;;;;;;5028993;28;20036;-74
2021/09/10 04:05:41;;;;;;;16.35;4.75;;;17.50;73.90;;;;;;5029626;28;20037;-65
2021/09/10 04:08:08;;;;;;;17.17;5.07;;;17.50;73.90;;;;;;5027075;28;20022;-68
2021/09/10 04:11:14;;;;;;;20.38;4.13;;;17.60;74.00;;;;;;5019921;28;20437;-71
2021/09/10 04:14:20;;;;;;;28.27;13.85;;;17.60;73.90;;;;;;5032437;28;20026;-69
2021/09/10 04:17:26;;;;;;;22.15;8.20;;;17.60;74.60;;;;;;5032947;28;20033;-63
2021/09/10 04:20:34;;;;;;;15.43;3.90;;;17.60;73.80;;;;;;5030457;28;20108;-67
2021/09/10 04:23:40;;;;;;;12.80;3.83;;;17.50;73.60;;;;;;5025597;28;20515;-67
2021/09/10 04:26:46;;;;;;;11.82;4.10;;;17.50;73.90;;;;;;5027436;28;20033;-65
2021/09/10 04:29:52;;;;;;;31.52;6.38;;;17.50;74.00;;;;;;5028267;28;20037;-71
2021/09/10 04:32:58;;;;;;;24.83;6.03;;;17.60;74.00;;;;;;5027711;28;20034;-78
2021/09/10 04:36:04;;;;;;;14.23;3.92;;;17.50;74.00;;;;;;5029427;28;20018;-67
2021/09/10 04:39:10;;;;;;;16.25;3.88;;;17.50;74.00;;;;;;5026571;28;20010;-70
2021/09/10 04:42:16;;;;;;;19.17;4.65;;;17.50;74.00;;;;;;5025418;28;20025;-69
2021/09/10 04:45:22;;;;;;;19.67;4.45;;;17.50;73.90;;;;;;5031569;28;20036;-64
2021/09/10 04:48:31;;;;;;;20.70;5.35;;;17.50;74.00;;;;;;5028524;28;20096;-68
2021/09/10 04:51:37;;;;;;;12.65;4.95;;;17.50;74.10;;;;;;5029077;28;20036;-66
2021/09/10 04:54:43;;;;;;;16.65;3.95;;;17.50;74.20;;;;;;5026392;28;20028;-66
2021/09/10 04:57:10;;;;;;;15.93;4.13;;;17.40;74.20;;;;;;5029390;28;20497;-75
2021/09/10 05:00:16;;;;;;;15.75;4.13;;;17.50;74.10;;;;;;5027999;28;20088;-68
2021/09/10 05:03:22;;;;;;;19.00;4.63;;;17.50;73.90;;;;;;5031374;28;20053;-71
2021/09/10 05:06:29;;;;;;;17.02;4.90;;;17.50;74.00;;;;;;5029728;28;20043;-66
2021/09/10 05:09:35;;;;;;;22.13;5.65;;;17.50;74.00;;;;;;5033539;28;20021;-78
2021/09/10 05:12:41;;;;;;;19.40;4.20;;;17.50;73.80;;;;;;5028622;28;20417;-71
2021/09/10 05:15:47;;;;;;;18.42;5.90;;;17.50;73.90;;;;;;5028120;28;20026;-70
2021/09/10 05:18:13;;;;;;;14.70;5.03;;;17.40;73.90;;;;;;5028655;28;20601;-74
2021/09/10 05:20:40;;;;;;;16.67;4.72;;;17.40;74.00;;;;;;5027681;28;20072;-71
2021/09/10 05:23:46;;;;;;;14.15;4.72;;;17.50;74.00;;;;;;5027057;28;20071;-78
2021/09/10 05:26:13;;;;;;;14.00;5.15;;;17.40;73.90;;;;;;5027726;28;20028;-72
2021/09/10 05:28:39;;;;;;;18.27;5.45;;;17.40;73.90;;;;;;5026318;28;20061;-71
2021/09/10 05:31:06;;;;;;;16.15;4.85;;;17.40;74.10;;;;;;5028892;28;20026;-70
2021/09/10 05:33:32;;;;;;;15.65;3.88;;;17.40;74.00;;;;;;5027227;28;20029;-65
2021/09/10 05:35:59;;;;;;;12.98;4.43;;;17.40;73.90;;;;;;5027671;28;20013;-71
2021/09/10 05:38:25;;;;;;;18.25;6.10;;;17.40;73.90;;;;;;5027107;28;20029;-70
2021/09/10 05:40:52;;;;;;;18.88;4.45;;;17.40;73.80;;;;;;5026494;28;20394;-75
2021/09/10 05:43:18;;;;;;;12.93;3.65;;;17.40;74.10;;;;;;5027915;28;20029;-75
2021/09/10 05:45:45;;;;;;;16.92;3.88;;;17.40;74.00;;;;;;5027091;28;20041;-75
2021/09/10 05:48:12;;;;;;;15.40;3.63;;;17.40;73.90;;;;;;5029608;28;20056;-74
2021/09/10 05:50:38;;;;;;;22.20;5.68;;;17.40;73.70;;;;;;5024097;28;20748;-72
2021/09/10 05:53:06;;;;;;;17.45;4.50;;;17.40;73.50;;;;;;5027497;28;20017;-66
2021/09/10 05:55:33;;;;;;;17.48;4.75;;;17.40;73.70;;;;;;5031632;28;20025;-66
2021/09/10 05:57:59;;;;;;;18.15;5.53;;;17.40;73.80;;;;;;5021433;28;20021;-67
2021/09/10 06:00:26;;;;;;;15.15;4.18;;;17.40;73.60;;;;;;5029587;28;20012;-77
2021/09/10 06:02:53;;;;;;;18.52;4.88;;;17.40;73.70;;;;;;5024741;28;20048;-73
2021/09/10 06:05:19;;;;;;;15.73;4.90;;;17.40;73.80;;;;;;5026699;28;20016;-73
2021/09/10 06:07:46;;;;;;;23.23;6.60;;;17.40;73.50;;;;;;5027804;28;20025;-77
2021/09/10 06:10:13;;;;;;;18.58;5.82;;;17.40;73.20;;;;;;5028346;28;20009;-67
2021/09/10 06:12:42;;;;;;;10.20;4.20;;;17.40;73.10;;;;;;5030150;28;20029;-75
2021/09/10 06:15:09;;;;;;;25.27;5.90;;;17.40;73.00;;;;;;5027608;28;20060;-76
2021/09/10 06:17:36;;;;;;;20.08;4.18;;;17.40;73.00;;;;;;5031307;28;20465;-74
2021/09/10 06:20:03;;;;;;;17.27;5.30;;;17.40;73.10;;;;;;5029863;28;20063;-77
2021/09/10 06:22:31;;;;;;;15.40;4.07;;;17.40;73.20;;;;;;5030321;28;20036;-70
2021/09/10 06:24:59;;;;;;;21.45;5.22;;;17.40;73.00;;;;;;5028763;28;20025;-66
2021/09/10 06:27:25;;;;;;;18.98;5.05;;;17.40;72.90;;;;;;5024468;28;20025;-75
2021/09/10 06:29:52;;;;;;;17.55;5.72;;;17.40;72.90;;;;;;5027673;28;20076;-77
2021/09/10 06:32:18;;;;;;;16.75;4.95;;;17.40;72.70;;;;;;5027162;28;20021;-76
2021/09/10 06:34:45;;;;;;;21.42;5.05;;;17.40;72.80;;;;;;5030267;28;20036;-76
2021/09/10 06:37:11;;;;;;;21.25;5.15;;;17.40;72.60;;;;;;5028694;28;20052;-65
2021/09/10 06:39:38;;;;;;;27.20;5.30;;;17.40;72.70;;;;;;5032182;28;20031;-76
2021/09/10 06:42:05;;;;;;;16.23;4.90;;;17.40;72.80;;;;;;5028181;28;20373;-76
2021/09/10 06:44:31;;;;;;;23.85;4.93;;;17.40;73.20;;;;;;5030385;28;20026;-75
2021/09/10 06:46:58;;;;;;;16.00;5.35;;;17.50;72.70;;;;;;5031555;28;20021;-77
2021/09/10 06:49:24;;;;;;;20.48;5.45;;;17.50;72.10;;;;;;5028390;28;20018;-76
2021/09/10 06:51:50;;;;;;;20.35;7.13;;;17.60;72.20;;;;;;5027886;28;20018;-75
2021/09/10 06:54:17;;;;;;;16.25;4.35;;;17.60;72.40;;;;;;5029256;28;20028;-75
2021/09/10 06:56:43;;;;;;;14.27;4.35;;;17.60;72.10;;;;;;5031270;28;20184;-75
2021/09/10 06:59:10;;;;;;;11.88;4.38;;;17.70;71.60;;;;;;5029197;28;20029;-77
2021/09/10 07:01:36;;;;;;;21.75;4.15;;;17.70;71.50;;;;;;5028289;28;20021;-76
2021/09/10 07:04:03;;;;;;;18.05;3.75;;;17.90;71.10;;;;;;5029454;28;20176;-77
2021/09/10 07:06:30;;;;;;;18.27;4.18;;;17.90;70.60;;;;;;5027880;28;20017;-78
2021/09/10 07:08:57;;;;;;;16.42;3.75;;;18.00;70.50;;;;;;5028220;28;20017;-74
2021/09/10 07:11:24;;;;;;;21.75;4.72;;;18.00;70.40;;;;;;5029148;28;20014;-76
2021/09/10 07:13:50;;;;;;;10.60;3.33;;;18.00;70.00;;;;;;5030424;28;20029;-75
2021/09/10 07:16:16;;;;;;;18.17;4.13;;;18.10;69.10;;;;;;5026359;28;20041;-77
2021/09/10 07:18:43;;;;;;;12.23;3.95;;;18.10;69.10;;;;;;5028991;28;20037;-77
2021/09/10 07:21:09;;;;;;;12.05;3.45;;;18.00;68.90;;;;;;5030483;28;20108;-76
2021/09/10 07:23:36;;;;;;;18.95;5.38;;;18.00;68.90;;;;;;5027987;28;20038;-66
2021/09/10 07:26:03;;;;;;;18.77;4.18;;;17.90;69.00;;;;;;5027567;28;20484;-74
2021/09/10 07:28:34;;;;;;;10.20;4.22;;;17.90;69.30;;;;;;5028469;28;20028;-74
2021/09/10 07:31:01;;;;;;;16.67;4.03;;;17.80;68.90;;;;;;5029326;28;20021;-75
2021/09/10 07:33:27;;;;;;;21.27;4.85;;;17.80;69.30;;;;;;5027466;28;20087;-74
2021/09/10 07:35:54;;;;;;;14.75;4.28;;;17.80;69.40;;;;;;5030482;28;20096;-69
2021/09/10 07:38:21;;;;;;;17.38;3.85;;;17.80;69.30;;;;;;5027844;28;20096;-66
2021/09/10 07:40:48;;;;;;;17.50;5.10;;;17.80;69.40;;;;;;5028920;28;20049;-73
2021/09/10 07:43:14;;;;;;;13.70;3.45;;;17.80;69.70;;;;;;5031330;28;20030;-72
2021/09/10 07:45:41;;;;;;;18.77;4.18;;;17.90;69.70;;;;;;5029667;28;20018;-69
2021/09/10 07:48:08;;;;;;;15.57;4.05;;;18.00;69.90;;;;;;5034684;28;20116;-70
2021/09/10 07:50:34;;;;;;;19.83;6.40;;;18.10;69.50;;;;;;5030902;28;20080;-71
2021/09/10 07:53:01;;;;;;;15.65;4.57;;;18.20;69.50;;;;;;5035276;28;20476;-66
2021/09/10 07:55:27;;;;;;;17.30;4.07;;;18.30;68.80;;;;;;5030377;28;20545;-65
2021/09/10 07:57:54;;;;;;;16.15;4.53;;;18.30;68.00;;;;;;5035161;28;20037;-68
2021/09/10 08:00:23;;;;;;;16.58;4.05;;;18.40;68.00;;;;;;5033186;28;20054;-71
2021/09/10 08:02:50;;;;;;;15.15;4.38;;;18.50;68.20;;;;;;5029425;28;20033;-74
2021/09/10 08:05:17;;;;;;;11.30;3.38;;;18.60;68.00;;;;;;5028069;28;20029;-66
2021/09/10 08:07:44;;;;;;;15.73;3.63;;;18.70;67.20;;;;;;5029648;28;20021;-72
2021/09/10 08:10:16;;;;;;;12.07;4.00;;;18.70;66.40;;;;;;5032720;28;20075;-68
2021/09/10 08:12:43;;;;;;;11.88;3.70;;;18.60;66.50;;;;;;5030425;28;20025;-72
2021/09/10 08:15:11;;;;;;;14.13;4.88;;;18.70;67.10;;;;;;5033046;28;20100;-68
2021/09/10 08:17:38;;;;;;;14.63;3.72;;;18.70;66.50;;;;;;5031464;28;20477;-66
2021/09/10 08:20:07;;;;;;;23.80;5.43;;;18.70;66.60;;;;;;5030489;28;20079;-72
2021/09/10 08:22:35;;;;;;;15.90;4.10;;;18.70;66.50;;;;;;5031596;28;20103;-76
2021/09/10 08:25:04;;;;;;;15.27;3.80;;;18.70;66.60;;;;;;5030529;28;20489;-66
2021/09/10 08:27:30;;;;;;;15.40;4.90;;;18.70;65.50;;;;;;5032130;28;20022;-68
2021/09/10 08:29:57;;;;;;;11.63;4.10;;;18.80;65.80;;;;;;5033823;28;20109;-66
2021/09/10 08:32:25;;;;;;;13.98;3.92;;;18.70;65.70;;;;;;5031404;28;20449;-65
2021/09/10 08:34:52;;;;;;;19.77;4.57;;;18.70;65.80;;;;;;5032343;28;20022;-66
2021/09/10 08:37:20;;;;;;;17.27;4.78;;;18.80;65.80;;;;;;5030612;28;20013;-74
2021/09/10 08:39:46;;;;;;;18.50;5.00;;;18.90;65.50;;;;;;5035369;28;20020;-65
2021/09/10 08:42:13;;;;;;;13.27;3.50;;;18.80;64.90;;;;;;5028733;28;20631;-65
2021/09/10 08:44:42;;;;;;;20.92;3.97;;;18.80;65.30;;;;;;5030824;28;20056;-75
2021/09/10 08:47:13;;;;;;;14.48;3.42;;;18.70;65.80;;;;;;5030603;28;20374;-65
2021/09/10 08:49:41;;;;;;;14.23;3.35;;;18.80;66.20;;;;;;5026644;28;20029;-65
2021/09/10 08:52:08;;;;;;;15.82;4.78;;;18.90;66.20;;;;;;5025318;28;20531;-70
2021/09/10 08:54:35;;;;;;;26.23;4.78;;;19.00;65.70;;;;;;5031568;28;20014;-68
2021/09/10 08:57:01;;;;;;;13.93;3.15;;;19.00;65.60;;;;;;5028983;28;20038;-66
2021/09/10 08:59:28;;;;;;;9.85;3.92;;;19.00;65.60;;;;;;5027803;28;20422;-65
2021/09/10 09:01:57;;;;;;;16.55;3.83;;;19.10;65.40;;;;;;5031988;28;20472;-65
2021/09/10 09:04:31;;;;;;;13.32;3.78;;;19.10;65.00;;;;;;5029287;28;20021;-66
2021/09/10 09:06:58;;;;;;;23.02;4.65;;;19.10;65.50;;;;;;5033567;28;20354;-72
2021/09/10 09:09:42;;;;;;;18.27;5.07;;;19.10;67.30;;;;;;5029369;28;20499;-67
2021/09/10 09:12:30;;;;;;;13.45;3.03;;;19.10;68.40;;;;;;5027179;28;20488;-67
2021/09/10 09:14:58;;;;;;;21.55;6.38;;;19.00;67.30;;;;;;5032465;28;20438;-65
2021/09/10 09:17:27;;;;;;;11.50;3.53;;;19.00;67.60;;;;;;5030962;28;20025;-75
2021/09/10 09:20:16;;;;;;;18.80;3.63;;;18.90;67.60;;;;;;5030558;28;20049;-65
2021/09/10 09:23:08;;;;;;;12.90;3.88;;;19.00;67.10;;;;;;5030729;28;20025;-69
2021/09/10 09:25:41;;;;;;;15.52;4.47;;;19.10;67.30;;;;;;5028808;28;20057;-76
2021/09/10 09:28:20;;;;;;;15.60;4.05;;;19.20;66.90;;;;;;5028063;28;20017;-65
2021/09/10 09:30:57;;;;;;;18.75;5.40;;;19.30;67.30;;;;;;5030023;28;20028;-65
2021/09/10 09:33:28;;;;;;;15.07;4.60;;;19.30;66.60;;;;;;5029414;28;20013;-70
2021/09/10 09:35:59;;;;;;;23.23;5.68;;;19.30;65.50;;;;;;5031040;28;20030;-65
2021/09/10 09:38:31;;;;;;;13.48;3.15;;;19.40;65.40;;;;;;5024115;28;20010;-69
2021/09/10 09:41:09;;;;;;;19.30;3.42;;;19.40;65.10;;;;;;5030824;28;20024;-65
2021/09/10 09:43:41;;;;;;;16.77;3.33;;;19.30;65.20;;;;;;5029923;28;20120;-65
2021/09/10 09:46:09;;;;;;;16.63;4.28;;;19.30;65.30;;;;;;5029249;28;20017;-66
2021/09/10 09:48:39;;;;;;;14.95;3.97;;;19.20;65.30;;;;;;5030244;28;20029;-69
2021/09/10 09:51:07;;;;;;;18.83;3.67;;;19.30;65.80;;;;;;5028775;28;20013;-64
2021/09/10 09:53:37;;;;;;;22.55;3.47;;;19.40;65.30;;;;;;5031520;28;20108;-64
2021/09/10 09:56:07;;;;;;;35.28;4.22;;;19.40;65.10;;;;;;5029807;28;20049;-66
2021/09/10 09:58:35;;;;;;;15.52;3.15;;;19.50;64.90;;;;;;5029522;28;20049;-66
2021/09/10 10:01:02;;;;;;;13.68;3.85;;;19.60;64.90;;;;;;5029773;28;20083;-69
2021/09/10 10:03:28;;;;;;;16.75;3.83;;;19.70;64.10;;;;;;5023342;28;20089;-66
2021/09/10 10:06:11;;;;;;;10.55;4.20;;;19.70;64.20;;;;;;5029437;28;20024;-67
2021/09/10 10:08:57;;;;;;;13.88;3.95;;;19.60;64.30;;;;;;5027179;28;20056;-65
2021/09/10 10:11:27;;;;;;;20.88;3.88;;;19.50;64.30;;;;;;5028980;28;20018;-73
2021/09/10 10:13:59;;;;;;;12.23;3.30;;;19.60;64.10;;;;;;5026988;28;20032;-64
2021/09/10 10:16:55;;;;;;;16.95;3.33;;;19.60;64.80;;;;;;5029851;28;20481;-66
2021/09/10 10:19:21;;;;;;;18.77;4.15;;;19.50;64.40;;;;;;5027414;28;20037;-69
2021/09/10 10:21:54;;;;;;;20.00;5.22;;;19.70;64.20;;;;;;5029066;28;20014;-64
2021/09/10 10:24:40;;;;;;;21.70;4.85;;;19.70;63.70;;;;;;5032287;28;20480;-65
2021/09/10 10:27:40;;;;;;;15.98;3.28;;;19.60;64.10;;;;;;5027003;28;20079;-73
2021/09/10 10:30:16;;;;;;;11.00;3.40;;;19.60;65.10;;;;;;5027555;28;20583;-74
2021/09/10 10:32:50;;;;;;;13.48;4.38;;;19.70;64.70;;;;;;5024446;28;20057;-69
2021/09/10 10:35:26;;;;;;;13.68;3.10;;;19.60;65.00;;;;;;5024632;28;20021;-73
2021/09/10 10:38:10;;;;;;;10.20;2.78;;;19.50;65.30;;;;;;5031471;28;20108;-72
2021/09/10 10:40:44;;;;;;;17.42;5.97;;;19.60;65.20;;;;;;5026874;28;20028;-69
2021/09/10 10:43:18;;;;;;;12.82;4.45;;;19.70;64.50;;;;;;5028175;28;20153;-75
2021/09/10 10:45:44;;;;;;;18.02;4.05;;;19.90;63.20;;;;;;5030105;28;20481;-68
2021/09/10 10:48:29;;;;;;;17.80;4.15;;;20.00;62.30;;;;;;5031411;28;20465;-72
2021/09/10 10:50:57;;;;;;;15.32;4.05;;;19.90;62.50;;;;;;5024403;28;20797;-70
2021/09/10 10:53:24;;;;;;;11.38;3.72;;;20.10;62.90;;;;;;5030109;28;20060;-68
2021/09/10 10:55:50;;;;;;;13.52;2.85;;;20.10;62.50;;;;;;5030265;28;20037;-64
2021/09/10 10:58:25;;;;;;;12.93;3.33;;;20.20;61.90;;;;;;5028805;28;20061;-66
2021/09/10 11:01:03;;;;;;;14.85;3.47;;;20.30;61.60;;;;;;5027894;28;20547;-64
2021/09/10 11:03:31;;;;;;;12.63;3.10;;;20.20;61.20;;;;;;5026115;28;20566;-74
2021/09/10 11:05:58;;;;;;;15.50;3.92;;;20.30;60.80;;;;;;5031781;28;20013;-65
2021/09/10 11:08:33;;;;;;;14.15;3.13;;;20.40;60.70;;;;;;5025642;28;20546;-72
2021/09/10 11:11:01;;;;;;;14.57;3.85;;;20.50;60.20;;;;;;5025624;28;20056;-72
2021/09/10 11:13:31;;;;;;;15.18;3.65;;;20.40;60.30;;;;;;5028997;28;20155;-68
2021/09/10 11:15:58;;;;;;;14.13;3.63;;;20.40;60.20;;;;;;5027994;28;20112;-73
2021/09/10 11:18:25;;;;;;;8.20;2.83;;;20.50;60.40;;;;;;5029244;28;20421;-72
2021/09/10 11:20:53;;;;;;;18.10;3.22;;;20.50;60.20;;;;;;5032074;28;20017;-69
2021/09/10 11:23:36;;;;;;;10.23;2.53;;;20.50;59.90;;;;;;5028200;28;20484;-74
2021/09/10 11:26:09;;;;;;;12.45;3.33;;;20.50;59.90;;;;;;5032288;28;20095;-72
2021/09/10 11:28:38;;;;;;;12.25;2.92;;;20.50;59.80;;;;;;5031657;28;20350;-65
2021/09/10 11:31:04;;;;;;;9.10;3.08;;;20.60;60.00;;;;;;5031947;28;20032;-65
2021/09/10 11:33:51;;;;;;;11.02;3.45;;;20.70;59.30;;;;;;5032084;28;20036;-65
2021/09/10 11:36:25;;;;;;;20.27;3.28;;;20.70;59.50;;;;;;5027657;28;20384;-65
2021/09/10 11:39:04;;;;;;;9.07;3.30;;;20.40;59.80;;;;;;5034978;28;20013;-65
2021/09/10 11:41:31;;;;;;;15.13;3.78;;;20.40;59.90;;;;;;5033174;28;20018;-65
2021/09/10 11:44:13;;;;;;;12.93;2.97;;;20.50;59.70;;;;;;5035197;28;20039;-73
2021/09/10 11:46:40;;;;;;;20.60;3.75;;;20.50;59.80;;;;;;5034834;28;20018;-65
2021/09/10 11:49:08;;;;;;;17.33;4.05;;;20.50;59.60;;;;;;5029056;28;20024;-64
2021/09/10 11:51:52;;;;;;;10.02;3.28;;;20.50;59.80;;;;;;5035493;28;20022;-71
2021/09/10 11:54:21;;;;;;;9.73;3.72;;;20.60;59.90;;;;;;5032795;28;20389;-65
2021/09/10 11:56:48;;;;;;;13.00;3.40;;;20.60;60.10;;;;;;5032979;28;20860;-75
2021/09/10 11:59:22;;;;;;;13.75;3.78;;;20.60;60.00;;;;;;5033993;28;20017;-75
2021/09/10 12:01:49;;;;;;;12.32;3.63;;;20.70;59.70;;;;;;5028899;28;20153;-66
2021/09/10 12:04:30;;;;;;;12.05;3.45;;;20.70;59.60;;;;;;5031840;28;20120;-66
2021/09/10 12:06:59;;;;;;;16.20;3.55;;;20.80;59.60;;;;;;5030011;28;20040;-71
2021/09/10 12:09:40;;;;;;;18.02;3.83;;;20.80;59.10;;;;;;5033150;28;20172;-70
2021/09/10 12:12:26;;;;;;;16.90;4.43;;;20.80;59.50;;;;;;5028798;28;20028;-75
2021/09/10 12:14:52;;;;;;;17.92;4.63;;;20.90;59.40;;;;;;5032126;28;20488;-66
2021/09/10 12:17:24;;;;;;;12.43;3.28;;;20.80;59.10;;;;;;5030300;28;20013;-70
2021/09/10 12:20:11;;;;;;;8.50;2.28;;;20.60;58.40;;;;;;5030770;28;20430;-66
2021/09/10 12:22:43;;;;;;;17.35;3.33;;;20.70;58.90;;;;;;5029566;28;20350;-65
2021/09/10 12:25:31;;;;;;;14.23;3.42;;;20.60;59.40;;;;;;5032629;28;20035;-65
2021/09/10 12:28:07;;;;;;;11.52;3.72;;;20.70;58.80;;;;;;5034091;28;20460;-72
2021/09/10 12:30:38;;;;;;;11.18;3.08;;;20.70;59.00;;;;;;5031310;28;20500;-76
2021/09/10 12:33:05;;;;;;;14.65;3.00;;;20.80;59.00;;;;;;5034044;28;20028;-70
2021/09/10 12:35:33;;;;;;;11.25;2.83;;;20.90;59.00;;;;;;5026623;28;20045;-75
2021/09/10 12:38:01;;;;;;;14.68;3.10;;;21.00;57.50;;;;;;5030730;28;20035;-74
2021/09/10 12:40:31;;;;;;;13.15;3.15;;;20.90;58.10;;;;;;5030987;28;20086;-72
2021/09/10 12:42:58;;;;;;;8.00;2.35;;;21.00;58.30;;;;;;5034447;28;20579;-69
2021/09/10 12:45:25;;;;;;;12.20;3.25;;;20.90;58.80;;;;;;5030356;28;20038;-72
2021/09/10 12:47:52;;;;;;;8.98;2.72;;;21.00;58.50;;;;;;5031437;28;20071;-75
2021/09/10 12:50:20;;;;;;;11.95;4.28;;;21.00;58.10;;;;;;5028602;28;20018;-75
2021/09/10 12:52:46;;;;;;;18.75;3.33;;;21.00;57.80;;;;;;5032561;28;20022;-76
2021/09/10 12:55:13;;;;;;;12.60;3.38;;;21.00;58.30;;;;;;5033059;28;20099;-76
2021/09/10 12:57:39;;;;;;;11.57;2.80;;;21.10;57.90;;;;;;5031033;28;20660;-69
2021/09/10 13:00:09;;;;;;;16.50;3.95;;;21.30;57.30;;;;;;5030686;28;20096;-65
2021/09/10 13:02:35;;;;;;;16.40;3.35;;;21.30;57.50;;;;;;5030278;28;20044;-65
2021/09/10 13:05:02;;;;;;;18.70;2.72;;;21.30;57.30;;;;;;5032359;28;20079;-69
2021/09/10 13:07:29;;;;;;;14.43;3.22;;;21.40;57.40;;;;;;5030433;28;20026;-74
2021/09/10 13:09:55;;;;;;;10.20;2.85;;;21.10;57.70;;;;;;5033653;28;20174;-65
2021/09/10 13:12:22;;;;;;;14.00;5.10;;;21.10;58.40;;;;;;5025626;28;20026;-65
2021/09/10 13:14:48;;;;;;;13.40;3.22;;;21.10;58.20;;;;;;5031284;28;20033;-65